Time;durP1;ratioP1;P1;durP2;ratioP2;P2;SDS_P1;SDS_P2;PMS_P1;PMS_P2;Temp;Humidity;BMP_temperature;BMP_pressure;BME280_temperature;BME280_humidity;BME280_pressure;Samples;Min_cycle;Max_cycle;Signal;HPM_P1;HPM_P2
2021/06/20 00:00:20;;;;;;;2.10;1.90;;;21.10;99.90;;;;;;5086831;28;20197;-78
2021/06/20 00:02:46;;;;;;;2.05;1.85;;;21.10;99.90;;;;;;5085549;28;20169;-78
2021/06/20 00:05:17;;;;;;;3.33;3.03;;;21.00;99.90;;;;;;5085758;28;20263;-78
2021/06/20 00:07:46;;;;;;;1.98;1.77;;;21.00;99.90;;;;;;5086246;28;20544;-78
2021/06/20 00:10:14;;;;;;;1.63;1.52;;;21.00;99.90;;;;;;5086840;28;20682;-78
2021/06/20 00:12:40;;;;;;;1.73;1.60;;;21.10;99.90;;;;;;5086751;28;20215;-78
2021/06/20 00:15:14;;;;;;;1.73;1.63;;;21.10;99.90;;;;;;5086616;28;20169;-78
2021/06/20 00:17:40;;;;;;;1.95;1.80;;;21.10;99.90;;;;;;5086168;28;20195;-77
2021/06/20 00:20:07;;;;;;;1.75;1.65;;;21.10;99.90;;;;;;5086856;28;20678;-78
2021/06/20 00:22:34;;;;;;;1.52;1.42;;;21.20;99.90;;;;;;5087126;28;20181;-77
2021/06/20 00:25:00;;;;;;;2.15;1.90;;;21.20;99.90;;;;;;5086235;28;20184;-78
2021/06/20 00:27:26;;;;;;;1.60;1.50;;;21.10;99.90;;;;;;5087093;28;20216;-78
2021/06/20 00:29:52;;;;;;;2.35;2.10;;;21.00;99.90;;;;;;5086115;28;20204;-78
2021/06/20 00:32:17;;;;;;;2.47;1.85;;;21.00;99.90;;;;;;5086734;28;20193;-78
2021/06/20 00:34:43;;;;;;;1.83;1.50;;;21.00;99.90;;;;;;5086135;28;20266;-78
2021/06/20 00:37:09;;;;;;;2.35;2.15;;;21.00;99.90;;;;;;5087133;28;20629;-78
2021/06/20 00:39:34;;;;;;;1.60;1.50;;;21.00;99.90;;;;;;5067926;28;20591;-78
2021/06/20 00:42:00;;;;;;;1.98;1.77;;;21.00;99.90;;;;;;5087054;28;20189;-78
2021/06/20 00:44:26;;;;;;;1.80;1.40;;;21.00;99.90;;;;;;5086165;28;20705;-78
2021/06/20 00:46:52;;;;;;;1.92;1.73;;;20.90;99.90;;;;;;5086694;28;20185;-78
2021/06/20 00:49:17;;;;;;;1.70;1.35;;;20.90;99.90;;;;;;5085813;28;20197;-78
2021/06/20 00:51:43;;;;;;;2.45;1.52;;;20.90;99.90;;;;;;5089277;28;20250;-78
2021/06/20 00:54:09;;;;;;;1.67;1.58;;;20.80;99.90;;;;;;5089840;28;20567;-77
2021/06/20 00:56:35;;;;;;;2.15;1.40;;;20.70;99.90;;;;;;5090081;28;20676;-77
2021/06/20 00:59:03;;;;;;;6.78;1.90;;;20.50;99.90;;;;;;5088714;28;20275;-78
2021/06/20 01:01:32;;;;;;;1.85;1.67;;;20.50;99.90;;;;;;5089042;28;20185;-78
2021/06/20 01:03:59;;;;;;;1.90;1.65;;;20.50;99.90;;;;;;5071778;28;20181;-78
2021/06/20 01:06:27;;;;;;;3.08;2.08;;;20.40;99.90;;;;;;5089764;28;20186;-77
2021/06/20 01:08:53;;;;;;;1.40;1.30;;;20.40;99.90;;;;;;5069848;28;20283;-77
2021/06/20 01:11:20;;;;;;;1.98;1.88;;;20.40;99.90;;;;;;5087864;28;20262;-78
2021/06/20 01:13:47;;;;;;;2.47;2.28;;;20.30;99.90;;;;;;5070229;28;20181;-77
2021/06/20 01:16:13;;;;;;;2.50;2.30;;;20.30;99.90;;;;;;5088462;28;20215;-78
2021/06/20 01:18:39;;;;;;;2.65;1.98;;;20.40;99.90;;;;;;5087328;28;20204;-78
2021/06/20 01:21:07;;;;;;;3.47;2.42;;;20.40;99.90;;;;;;5070213;28;20181;-76
2021/06/20 01:23:33;;;;;;;3.00;2.28;;;20.40;99.90;;;;;;5070531;28;20181;-77
2021/06/20 01:25:58;;;;;;;2.83;2.60;;;20.40;99.90;;;;;;5070136;28;20192;-77
2021/06/20 01:28:27;;;;;;;3.22;2.80;;;20.50;99.90;;;;;;5087900;28;21216;-78
2021/06/20 01:30:59;;;;;;;3.33;2.50;;;20.60;99.90;;;;;;5086730;28;20770;-77
2021/06/20 01:33:26;;;;;;;5.13;2.80;;;20.70;99.90;;;;;;5087624;28;20164;-77
2021/06/20 01:35:53;;;;;;;5.82;4.78;;;20.70;99.90;;;;;;5086777;28;20698;-77
2021/06/20 01:38:19;;;;;;;8.32;7.38;;;20.70;99.90;;;;;;5086791;28;20636;-77
2021/06/20 01:40:44;;;;;;;6.03;5.15;;;20.70;99.90;;;;;;5087574;28;20208;-77
2021/06/20 01:43:11;;;;;;;4.25;3.72;;;20.80;99.90;;;;;;5087393;28;20608;-77
2021/06/20 01:45:39;;;;;;;4.35;3.42;;;20.80;99.90;;;;;;5088196;28;20185;-78
2021/06/20 01:48:06;;;;;;;3.15;2.85;;;20.80;99.90;;;;;;5087465;28;20177;-78
2021/06/20 01:50:32;;;;;;;4.47;3.10;;;20.70;99.90;;;;;;5086040;28;20211;-77
2021/06/20 01:53:00;;;;;;;3.65;2.42;;;20.60;99.90;;;;;;5087715;28;20165;-77
2021/06/20 01:55:26;;;;;;;2.90;2.70;;;20.70;99.90;;;;;;5087311;28;20189;-77
2021/06/20 01:57:51;;;;;;;3.35;2.75;;;20.60;99.90;;;;;;5087511;28;20684;-78
2021/06/20 02:00:17;;;;;;;4.35;3.35;;;20.50;99.90;;;;;;5069318;28;20212;-77
2021/06/20 02:02:44;;;;;;;3.47;3.00;;;20.50;99.90;;;;;;5086245;28;20204;-77
2021/06/20 02:05:11;;;;;;;4.65;2.85;;;20.50;99.90;;;;;;5069444;28;20185;-77
2021/06/20 02:07:37;;;;;;;6.07;3.15;;;20.50;99.90;;;;;;5087184;28;20173;-77
2021/06/20 02:10:09;;;;;;;5.95;3.28;;;20.50;99.90;;;;;;5086737;28;20280;-77
2021/06/20 02:12:34;;;;;;;5.05;4.55;;;20.60;99.90;;;;;;5087333;28;20208;-77
2021/06/20 02:15:00;;;;;;;3.90;3.55;;;20.60;99.90;;;;;;5069016;28;20560;-77
2021/06/20 02:17:29;;;;;;;5.75;4.63;;;20.60;99.90;;;;;;5087628;28;20311;-77
2021/06/20 02:20:06;;;;;;;4.03;3.70;;;20.80;99.90;;;;;;5086858;28;20674;-78
2021/06/20 02:22:32;;;;;;;3.40;3.10;;;20.90;99.90;;;;;;5089871;28;20221;-78
2021/06/20 02:24:59;;;;;;;4.55;3.20;;;21.00;99.90;;;;;;5072351;28;20181;-80
2021/06/20 02:27:25;;;;;;;3.17;2.88;;;21.00;99.90;;;;;;5072099;28;20192;-79
2021/06/20 02:29:53;;;;;;;3.78;3.42;;;21.00;99.90;;;;;;5089157;28;20204;-77
2021/06/20 02:32:20;;;;;;;5.93;4.35;;;20.90;99.90;;;;;;5089896;28;20208;-79
2021/06/20 02:34:46;;;;;;;5.97;3.38;;;20.80;99.90;;;;;;5090821;28;20186;-79
2021/06/20 02:37:13;;;;;;;4.93;3.05;;;20.60;99.90;;;;;;5072513;28;20185;-79
2021/06/20 02:39:39;;;;;;;5.32;3.00;;;20.70;99.90;;;;;;5090451;28;20208;-79
2021/06/20 02:42:05;;;;;;;3.35;3.03;;;20.70;99.90;;;;;;5090468;28;20230;-80
2021/06/20 02:44:31;;;;;;;4.60;3.55;;;20.70;99.90;;;;;;5091225;28;20198;-78
2021/06/20 02:47:01;;;;;;;4.13;3.60;;;20.70;99.90;;;;;;5091184;28;20184;-78
2021/06/20 02:49:27;;;;;;;3.03;2.80;;;20.70;99.90;;;;;;5090938;28;20286;-78
2021/06/20 02:51:53;;;;;;;3.25;2.92;;;20.90;99.90;;;;;;5090544;28;20578;-79
2021/06/20 02:54:18;;;;;;;3.20;2.90;;;20.90;99.90;;;;;;5091149;28;20226;-79
2021/06/20 02:56:44;;;;;;;3.30;2.88;;;20.90;99.90;;;;;;5073056;28;20185;-79
2021/06/20 02:59:10;;;;;;;4.00;3.60;;;20.80;99.90;;;;;;5072950;28;20190;-78
2021/06/20 03:01:35;;;;;;;3.97;3.17;;;20.60;99.90;;;;;;5070231;28;20207;-78
2021/06/20 03:04:01;;;;;;;3.63;3.33;;;20.60;99.90;;;;;;5069406;28;20184;-77
2021/06/20 03:06:27;;;;;;;4.55;3.42;;;20.60;99.90;;;;;;5068180;28;20314;-78
2021/06/20 03:08:52;;;;;;;3.42;3.13;;;20.70;99.90;;;;;;5085709;28;20206;-78
2021/06/20 03:11:21;;;;;;;3.83;3.25;;;20.90;99.90;;;;;;5086316;28;20200;-77
2021/06/20 03:13:48;;;;;;;5.07;3.40;;;20.90;99.90;;;;;;5068194;28;20188;-77
2021/06/20 03:16:15;;;;;;;4.72;3.92;;;21.00;99.90;;;;;;5086625;28;20177;-76
2021/06/20 03:18:41;;;;;;;3.28;2.85;;;21.10;99.90;;;;;;5068429;28;20197;-79
2021/06/20 03:21:07;;;;;;;4.32;3.45;;;21.20;99.90;;;;;;5086628;28;20648;-77
2021/06/20 03:23:33;;;;;;;4.88;3.38;;;21.20;99.90;;;;;;5087263;28;20191;-78
2021/06/20 03:25:59;;;;;;;3.65;2.78;;;21.10;99.90;;;;;;5068608;28;20196;-76
2021/06/20 03:28:24;;;;;;;5.75;3.35;;;21.20;99.90;;;;;;5069818;28;20191;-78
2021/06/20 03:30:50;;;;;;;3.40;3.10;;;21.20;99.90;;;;;;5087987;28;20216;-78
2021/06/20 03:33:15;;;;;;;3.47;2.92;;;21.20;99.90;;;;;;5087691;28;20241;-78
2021/06/20 03:35:41;;;;;;;4.75;3.58;;;21.20;99.90;;;;;;5087612;28;20600;-78
2021/06/20 03:38:06;;;;;;;3.35;3.05;;;21.10;99.90;;;;;;5069838;28;20195;-78
2021/06/20 03:40:32;;;;;;;4.50;3.38;;;21.10;99.90;;;;;;5070130;28;20204;-78
2021/06/20 03:42:58;;;;;;;3.47;3.17;;;20.90;99.90;;;;;;5087627;28;20187;-78
2021/06/20 03:45:24;;;;;;;3.97;3.10;;;20.80;99.90;;;;;;5069565;28;20931;-78
2021/06/20 03:47:49;;;;;;;4.28;3.38;;;20.90;99.90;;;;;;5085857;28;20180;-77
2021/06/20 03:50:15;;;;;;;4.38;3.40;;;20.90;99.90;;;;;;5069588;28;20208;-78
2021/06/20 03:52:40;;;;;;;3.95;3.22;;;20.80;99.90;;;;;;5087524;28;20207;-78
2021/06/20 03:55:08;;;;;;;4.65;3.50;;;20.80;99.90;;;;;;5088854;28;20185;-78
2021/06/20 03:57:34;;;;;;;3.85;3.30;;;21.00;99.90;;;;;;5086936;28;20223;-78
2021/06/20 04:00:00;;;;;;;3.83;2.83;;;21.30;99.90;;;;;;5086724;28;20201;-79
2021/06/20 04:02:25;;;;;;;4.47;2.60;;;21.60;99.90;;;;;;5068960;28;20196;-78
2021/06/20 04:04:51;;;;;;;3.63;2.70;;;21.90;99.90;;;;;;5085732;28;20208;-78
2021/06/20 04:07:17;;;;;;;5.55;3.97;;;21.90;99.90;;;;;;5087007;28;20229;-78
2021/06/20 04:09:43;;;;;;;4.38;3.00;;;22.40;99.90;;;;;;5087415;28;20257;-78
2021/06/20 04:12:11;;;;;;;3.97;2.88;;;22.50;99.90;;;;;;5089378;28;20815;-78
2021/06/20 04:14:38;;;;;;;2.42;1.75;;;22.40;99.90;;;;;;5071918;28;20181;-78
2021/06/20 04:17:05;;;;;;;3.05;1.65;;;22.20;99.90;;;;;;5089917;28;20165;-78
2021/06/20 04:19:30;;;;;;;1.95;1.45;;;21.90;99.90;;;;;;5088727;28;20208;-77
2021/06/20 04:21:56;;;;;;;1.40;1.30;;;21.80;99.90;;;;;;5088073;28;20184;-77
2021/06/20 04:24:21;;;;;;;2.65;1.38;;;21.60;99.90;;;;;;5087875;28;20173;-75
2021/06/20 04:26:47;;;;;;;2.53;1.38;;;21.60;99.90;;;;;;5090816;28;20181;-76
2021/06/20 04:29:13;;;;;;;1.98;1.58;;;21.50;99.90;;;;;;5090494;28;20286;-76
2021/06/20 04:31:38;;;;;;;2.65;1.60;;;21.40;99.90;;;;;;5074503;28;20197;-79
2021/06/20 04:34:05;;;;;;;1.15;1.02;;;21.40;99.90;;;;;;5092275;28;20177;-74
2021/06/20 04:36:30;;;;;;;1.40;1.30;;;21.30;99.90;;;;;;5093359;28;20201;-77
2021/06/20 04:38:57;;;;;;;1.80;0.90;;;21.30;99.90;;;;;;5075731;28;20338;-79
2021/06/20 04:41:23;;;;;;;1.95;1.10;;;21.20;99.90;;;;;;5092086;28;20621;-75
2021/06/20 04:46:27;;;;;;;4.13;1.15;;;20.90;99.90;;;;;;5093130;28;20284;-77
2021/06/20 04:48:55;;;;;;;1.58;0.70;;;20.80;99.90;;;;;;5093256;28;20735;-76
2021/06/20 04:51:21;;;;;;;1.60;1.20;;;20.70;99.90;;;;;;5074589;28;20213;-78
2021/06/20 04:53:48;;;;;;;1.10;0.95;;;20.70;99.90;;;;;;5073788;28;20839;-77
2021/06/20 04:56:13;;;;;;;2.88;1.13;;;20.70;99.90;;;;;;5091636;28;20748;-76
2021/06/20 04:58:40;;;;;;;0.88;0.75;;;20.70;99.90;;;;;;5073850;28;20311;-77
2021/06/20 05:01:06;;;;;;;0.70;0.70;;;20.60;99.90;;;;;;5091819;28;20177;-76
2021/06/20 05:03:32;;;;;;;1.25;1.02;;;20.60;99.90;;;;;;5092460;28;20191;-75
2021/06/20 05:05:57;;;;;;;1.77;0.60;;;20.60;99.90;;;;;;5073891;28;20177;-76
2021/06/20 05:08:23;;;;;;;1.60;0.50;;;20.60;99.90;;;;;;5074542;28;20188;-78
2021/06/20 05:10:51;;;;;;;0.98;0.80;;;20.50;99.90;;;;;;5092433;28;20216;-76
2021/06/20 05:13:16;;;;;;;0.63;0.63;;;20.50;99.90;;;;;;5074272;28;20567;-77
2021/06/20 05:15:42;;;;;;;3.15;0.98;;;20.60;99.90;;;;;;5092749;28;20194;-78
2021/06/20 05:18:07;;;;;;;0.90;0.90;;;20.50;99.90;;;;;;5073872;28;20784;-79
2021/06/20 05:20:33;;;;;;;0.90;0.68;;;20.60;99.90;;;;;;5092217;28;20599;-79
2021/06/20 05:22:59;;;;;;;2.60;1.00;;;20.60;99.90;;;;;;5091941;28;20239;-79
2021/06/20 05:25:24;;;;;;;2.17;0.60;;;20.60;99.90;;;;;;5075355;28;20268;-77
2021/06/20 05:27:50;;;;;;;0.90;0.70;;;20.50;99.90;;;;;;5093025;28;20173;-78
2021/06/20 05:30:16;;;;;;;2.90;0.73;;;20.50;99.90;;;;;;5092675;28;20573;-78
2021/06/20 05:32:41;;;;;;;1.42;0.90;;;20.60;99.90;;;;;;5073224;28;20232;-79
2021/06/20 05:35:07;;;;;;;1.00;0.82;;;20.70;99.90;;;;;;5092192;28;20207;-78
2021/06/20 05:37:33;;;;;;;1.17;0.77;;;20.70;99.90;;;;;;5090947;28;20208;-79
2021/06/20 05:39:58;;;;;;;2.42;0.85;;;20.70;99.90;;;;;;5090290;28;20705;-79
2021/06/20 05:42:24;;;;;;;1.23;0.90;;;20.70;99.90;;;;;;5073489;28;20200;-80
2021/06/20 05:44:50;;;;;;;0.98;0.55;;;20.70;99.90;;;;;;5091894;28;20185;-78
2021/06/20 05:47:15;;;;;;;5.60;2.28;;;20.60;99.90;;;;;;5092586;28;20776;-79
2021/06/20 05:49:41;;;;;;;3.13;1.00;;;20.70;99.90;;;;;;5068391;28;20200;-79
2021/06/20 05:52:07;;;;;;;2.75;1.10;;;20.70;99.90;;;;;;5091476;28;20201;-79
2021/06/20 05:54:32;;;;;;;3.63;0.90;;;20.80;99.90;;;;;;5091588;28;20192;-78
2021/06/20 05:56:58;;;;;;;2.08;1.17;;;20.90;99.90;;;;;;5091610;28;20181;-78
2021/06/20 05:59:24;;;;;;;2.63;0.90;;;21.00;99.90;;;;;;5091616;28;20197;-78
2021/06/20 06:01:49;;;;;;;2.63;1.13;;;21.20;99.90;;;;;;5092161;28;20199;-79
2021/06/20 06:04:15;;;;;;;1.42;0.95;;;21.40;99.90;;;;;;5090085;28;20524;-79
2021/06/20 06:06:40;;;;;;;1.85;1.20;;;21.60;99.90;;;;;;5090913;28;20187;-79
2021/06/20 06:09:06;;;;;;;1.98;1.35;;;22.00;99.90;;;;;;5072947;28;20374;-79
2021/06/20 06:11:31;;;;;;;2.95;0.88;;;22.40;99.90;;;;;;5073604;28;20291;-79
2021/06/20 06:13:57;;;;;;;2.95;1.17;;;22.80;99.90;;;;;;5092079;28;20264;-79
2021/06/20 06:16:23;;;;;;;3.28;1.25;;;23.40;99.90;;;;;;5091066;28;20176;-79
2021/06/20 06:18:48;;;;;;;1.10;1.00;;;23.90;99.90;;;;;;5072245;28;20200;-80
2021/06/20 06:21:14;;;;;;;1.77;1.00;;;24.40;99.90;;;;;;5091459;28;20216;-80
2021/06/20 06:23:40;;;;;;;1.83;1.00;;;25.00;99.90;;;;;;5090022;28;20219;-79
2021/06/20 06:26:05;;;;;;;1.52;0.75;;;25.50;99.90;;;;;;5089670;28;20181;-79
2021/06/20 06:28:31;;;;;;;2.95;1.05;;;25.90;99.90;;;;;;5073453;28;20227;-79
2021/06/20 06:30:57;;;;;;;1.58;1.00;;;26.20;99.90;;;;;;5090989;28;20216;-78
2021/06/20 06:33:22;;;;;;;2.08;0.93;;;26.60;99.90;;;;;;5070326;28;20262;-78
2021/06/20 06:35:48;;;;;;;2.63;1.25;;;26.80;99.90;;;;;;5088181;28;20692;-79
2021/06/20 06:38:13;;;;;;;3.28;1.30;;;26.70;99.90;;;;;;5089682;28;20181;-80
2021/06/20 06:40:39;;;;;;;2.42;1.10;;;26.30;99.90;;;;;;5090912;28;20196;-79
2021/06/20 06:43:05;;;;;;;2.28;1.10;;;26.50;99.90;;;;;;5090312;28;20187;-79
2021/06/20 06:45:30;;;;;;;2.25;1.25;;;26.70;99.90;;;;;;5072666;28;20180;-78
2021/06/20 06:47:56;;;;;;;1.90;1.65;;;26.70;99.90;;;;;;5090128;28;20177;-78
2021/06/20 06:50:22;;;;;;;4.07;1.63;;;26.70;99.90;;;;;;5090921;28;20693;-79
2021/06/20 06:52:47;;;;;;;2.75;1.70;;;26.70;99.90;;;;;;5090570;28;20209;-79
2021/06/20 06:55:14;;;;;;;5.38;2.30;;;26.60;99.90;;;;;;5071640;28;20184;-80
2021/06/20 06:57:40;;;;;;;1.77;1.50;;;26.60;99.90;;;;;;5071219;28;20746;-79
2021/06/20 07:00:07;;;;;;;1.55;1.40;;;26.80;99.90;;;;;;5069793;28;20289;-80
2021/06/20 07:02:33;;;;;;;2.58;1.75;;;26.80;99.90;;;;;;5087997;28;20176;-79
2021/06/20 07:04:59;;;;;;;1.85;1.63;;;27.00;99.90;;;;;;5088863;28;20191;-79
2021/06/20 07:07:26;;;;;;;2.50;1.88;;;27.00;99.90;;;;;;5088898;28;20189;-79
2021/06/20 07:09:51;;;;;;;3.65;1.90;;;26.90;99.90;;;;;;5088410;28;20673;-79
2021/06/20 07:12:17;;;;;;;3.60;2.10;;;26.90;99.90;;;;;;5086914;28;20290;-79
2021/06/20 07:14:43;;;;;;;5.97;2.33;;;27.00;99.90;;;;;;5087854;28;20187;-79
2021/06/20 07:17:09;;;;;;;2.45;1.73;;;26.90;99.90;;;;;;5069262;28;20270;-80
2021/06/20 07:19:35;;;;;;;3.45;2.40;;;27.10;99.90;;;;;;5070016;28;20231;-80
2021/06/20 07:22:02;;;;;;;5.10;2.50;;;27.10;99.90;;;;;;5087718;28;20208;-79
2021/06/20 07:24:28;;;;;;;2.40;2.20;;;27.20;99.90;;;;;;5088004;28;20188;-79
2021/06/20 07:26:54;;;;;;;2.30;2.10;;;27.30;99.90;;;;;;5066075;28;20191;-80
2021/06/20 07:29:19;;;;;;;2.60;2.40;;;27.30;99.90;;;;;;5083998;28;20678;-79
2021/06/20 07:31:45;;;;;;;2.65;2.38;;;27.50;99.90;;;;;;5065690;28;20447;-78
2021/06/20 07:34:10;;;;;;;2.63;2.42;;;27.60;99.90;;;;;;5081354;28;20192;-78
2021/06/20 07:36:36;;;;;;;2.88;2.58;;;27.70;99.90;;;;;;5069140;28;20188;-80
2021/06/20 07:39:03;;;;;;;4.57;2.38;;;27.70;99.90;;;;;;5083929;28;20232;-78
2021/06/20 07:41:29;;;;;;;3.67;2.33;;;27.60;99.90;;;;;;5081963;28;20180;-78
2021/06/20 07:43:54;;;;;;;3.65;2.45;;;27.80;99.90;;;;;;5063264;28;20478;-80
2021/06/20 07:46:20;;;;;;;2.72;2.25;;;27.90;99.90;;;;;;5080998;28;20181;-79
2021/06/20 07:48:45;;;;;;;4.43;2.60;;;27.90;99.90;;;;;;5082198;28;20206;-79
2021/06/20 07:51:11;;;;;;;4.28;2.40;;;27.80;99.90;;;;;;5084079;28;20201;-76
2021/06/20 07:53:38;;;;;;;2.90;2.60;;;28.00;99.90;;;;;;5084686;28;20220;-77
2021/06/20 07:56:04;;;;;;;4.20;2.30;;;27.90;99.90;;;;;;5064578;28;20207;-77
2021/06/20 07:58:30;;;;;;;4.30;2.65;;;27.90;99.90;;;;;;5065017;28;20548;-77
2021/06/20 08:00:55;;;;;;;3.38;2.30;;;27.90;99.90;;;;;;5069415;28;20737;-77
2021/06/20 08:03:21;;;;;;;2.55;2.00;;;27.90;99.90;;;;;;5069519;28;20857;-76
2021/06/20 08:05:47;;;;;;;6.35;1.90;;;27.90;99.90;;;;;;5072720;28;20645;-79
2021/06/20 08:08:13;;;;;;;3.60;1.88;;;28.00;99.90;;;;;;5070410;28;20207;-78
2021/06/20 08:10:39;;;;;;;3.33;2.10;;;28.00;99.90;;;;;;5069227;28;20181;-80
2021/06/20 08:13:05;;;;;;;1.92;1.80;;;27.80;99.90;;;;;;5070419;28;20299;-79
2021/06/20 08:15:31;;;;;;;2.40;1.80;;;27.80;99.90;;;;;;5092325;28;20558;-79
2021/06/20 08:17:56;;;;;;;3.03;2.25;;;28.00;99.90;;;;;;5090014;28;20636;-80
2021/06/20 08:20:22;;;;;;;2.38;2.17;;;28.30;99.90;;;;;;5072106;28;20483;-80
2021/06/20 08:22:47;;;;;;;6.15;2.55;;;28.60;99.90;;;;;;5088489;28;20605;-77
2021/06/20 08:25:14;;;;;;;3.42;2.00;;;29.10;99.90;;;;;;5085912;28;20628;-77
2021/06/20 08:27:40;;;;;;;2.83;2.28;;;29.10;99.90;;;;;;5069754;28;20191;-77
2021/06/20 08:30:08;;;;;;;2.65;2.38;;;29.10;99.90;;;;;;5069837;28;20572;-79
2021/06/20 08:32:34;;;;;;;2.55;1.73;;;29.10;99.90;;;;;;5087523;28;20235;-78
2021/06/20 08:35:00;;;;;;;1.75;1.63;;;28.80;99.90;;;;;;5070728;28;20415;-78
2021/06/20 08:37:27;;;;;;;2.47;1.92;;;28.30;99.90;;;;;;5088350;28;20208;-78
2021/06/20 08:39:53;;;;;;;2.05;1.75;;;28.20;99.90;;;;;;5077855;28;20236;-78
2021/06/20 08:42:19;;;;;;;1.92;1.73;;;28.20;99.90;;;;;;5078104;28;20180;-78
2021/06/20 08:44:44;;;;;;;3.03;2.03;;;28.40;99.90;;;;;;5087402;28;20468;-79
2021/06/20 08:47:11;;;;;;;2.97;1.92;;;28.60;99.90;;;;;;5087836;28;20651;-77
2021/06/20 08:49:37;;;;;;;5.07;2.00;;;28.50;99.90;;;;;;5087977;28;20693;-78
2021/06/20 08:52:04;;;;;;;2.33;2.00;;;28.60;99.90;;;;;;5068748;28;21044;-77
2021/06/20 08:54:30;;;;;;;3.92;2.03;;;28.80;99.90;;;;;;5088406;28;20481;-78
2021/06/20 08:56:57;;;;;;;1.85;1.67;;;28.80;99.90;;;;;;5084887;28;20188;-76
2021/06/20 08:59:24;;;;;;;1.67;1.58;;;28.80;99.90;;;;;;5088220;28;20197;-78
2021/06/20 09:01:52;;;;;;;3.45;1.65;;;28.80;99.90;;;;;;5087401;28;20185;-78
2021/06/20 09:04:34;;;;;;;2.47;1.80;;;29.00;99.90;;;;;;5087775;28;20181;-79
2021/06/20 09:07:01;;;;;;;2.13;1.58;;;29.00;99.90;;;;;;5088904;28;20237;-79
2021/06/20 09:09:35;;;;;;;2.10;1.83;;;28.90;99.90;;;;;;5087908;28;20650;-80
2021/06/20 09:12:08;;;;;;;2.42;1.40;;;28.80;99.90;;;;;;5086502;28;20200;-79
2021/06/20 09:14:44;;;;;;;2.13;1.58;;;28.70;99.90;;;;;;5088227;28;20173;-78
2021/06/20 09:17:10;;;;;;;2.15;1.60;;;28.90;99.90;;;;;;5087677;28;20252;-80
2021/06/20 09:19:36;;;;;;;2.30;1.67;;;29.20;99.90;;;;;;5067047;28;20295;-77
2021/06/20 09:22:08;;;;;;;2.83;2.00;;;29.20;99.90;;;;;;5088874;28;20181;-78
2021/06/20 09:24:33;;;;;;;3.65;1.45;;;29.50;99.90;;;;;;5088673;28;20184;-78
2021/06/20 09:27:00;;;;;;;3.67;1.73;;;29.50;99.90;;;;;;5090379;28;20262;-79
2021/06/20 09:29:38;;;;;;;2.85;1.52;;;29.30;99.90;;;;;;5070333;28;20674;-78
2021/06/20 09:32:09;;;;;;;1.67;1.38;;;29.50;99.90;;;;;;5069065;28;20211;-77
2021/06/20 09:34:49;;;;;;;2.65;1.77;;;29.80;99.90;;;;;;5087518;28;20226;-77
2021/06/20 09:37:18;;;;;;;1.90;1.70;;;30.50;99.90;;;;;;5068684;28;20595;-76
2021/06/20 09:39:44;;;;;;;1.70;1.60;;;30.70;99.90;;;;;;5069157;28;20694;-80
2021/06/20 09:42:12;;;;;;;2.22;1.80;;;30.70;99.90;;;;;;5069923;28;20267;-79
2021/06/20 09:44:42;;;;;;;2.63;2.00;;;30.60;99.90;;;;;;5087072;28;20247;-80
2021/06/20 09:47:13;;;;;;;2.90;1.63;;;30.20;99.90;;;;;;5069378;28;20262;-80
2021/06/20 09:49:40;;;;;;;1.77;1.50;;;30.20;99.90;;;;;;5087131;28;20250;-79
2021/06/20 09:52:07;;;;;;;2.83;2.03;;;30.10;99.90;;;;;;5087034;28;20299;-79
2021/06/20 09:54:38;;;;;;;2.47;2.13;;;30.00;99.90;;;;;;5087510;28;20176;-80
2021/06/20 09:57:04;;;;;;;3.35;1.98;;;29.70;99.90;;;;;;5088360;28;20559;-77
2021/06/20 09:59:32;;;;;;;2.40;1.60;;;29.90;99.90;;;;;;5086638;28;20678;-79
2021/06/20 10:02:12;;;;;;;2.63;1.80;;;30.00;99.90;;;;;;5085569;28;20193;-79
2021/06/20 10:04:39;;;;;;;1.58;1.33;;;29.80;99.90;;;;;;5068732;28;20191;-78
2021/06/20 10:07:06;;;;;;;2.35;1.60;;;29.70;99.90;;;;;;5087375;28;20421;-77
2021/06/20 10:09:33;;;;;;;2.85;1.75;;;29.60;99.90;;;;;;5087353;28;20205;-78
2021/06/20 10:11:59;;;;;;;1.63;1.42;;;29.60;99.90;;;;;;5087271;28;20201;-79
2021/06/20 10:14:26;;;;;;;2.55;1.85;;;30.00;99.90;;;;;;5088377;28;20264;-77
2021/06/20 10:16:55;;;;;;;2.20;1.65;;;30.20;99.90;;;;;;5068158;28;20181;-79
2021/06/20 10:19:24;;;;;;;2.67;2.05;;;30.10;99.90;;;;;;5087630;28;20200;-79
2021/06/20 10:22:06;;;;;;;1.45;1.35;;;30.10;99.90;;;;;;5086935;28;20665;-79
2021/06/20 10:25:00;;;;;;;4.45;1.60;;;30.20;99.90;;;;;;5085383;28;20715;-79
2021/06/20 10:27:38;;;;;;;1.95;1.73;;;30.10;99.90;;;;;;5066640;28;20236;-77
2021/06/20 10:30:26;;;;;;;1.63;1.52;;;30.00;99.90;;;;;;5067223;28;20200;-77
2021/06/20 10:33:01;;;;;;;1.60;1.50;;;29.90;99.90;;;;;;5066287;28;20629;-76
2021/06/20 10:35:26;;;;;;;4.15;2.15;;;29.70;99.90;;;;;;5085333;28;20566;-77
2021/06/20 10:37:53;;;;;;;2.45;1.60;;;29.80;99.90;;;;;;5067863;28;20192;-77
2021/06/20 10:40:54;;;;;;;1.90;1.70;;;30.20;99.90;;;;;;5082280;28;20217;-78
2021/06/20 10:43:20;;;;;;;3.55;1.73;;;30.40;99.90;;;;;;5006873;28;20195;-77
2021/06/20 10:45:47;;;;;;;1.77;1.63;;;30.60;99.90;;;;;;5070212;28;20265;-78
2021/06/20 10:48:29;;;;;;;4.88;2.28;;;31.00;99.90;;;;;;5066513;28;20181;-80
2021/06/20 10:50:57;;;;;;;2.63;1.95;;;31.00;99.90;;;;;;5086272;28;20354;-78
2021/06/20 10:53:25;;;;;;;2.80;1.63;;;30.80;99.90;;;;;;5086891;28;20176;-77
2021/06/20 10:55:56;;;;;;;3.30;1.75;;;31.10;99.90;;;;;;5095823;28;20880;-76
2021/06/20 10:58:25;;;;;;;2.00;1.90;;;31.10;99.90;;;;;;5087112;28;20219;-79
2021/06/20 11:01:04;;;;;;;3.65;1.92;;;31.30;99.90;;;;;;5086635;28;20180;-77
2021/06/20 11:03:30;;;;;;;2.58;1.98;;;31.30;99.90;;;;;;5086688;28;20188;-79
2021/06/20 11:06:04;;;;;;;2.13;1.60;;;30.70;99.90;;;;;;5087694;28;20833;-79
2021/06/20 11:08:34;;;;;;;1.92;1.65;;;30.40;99.90;;;;;;5085315;28;20180;-77
2021/06/20 11:11:06;;;;;;;2.50;1.70;;;30.40;99.90;;;;;;5068002;28;20243;-80
2021/06/20 11:13:32;;;;;;;1.73;1.63;;;30.50;99.90;;;;;;5085859;28;20569;-76
2021/06/20 11:16:04;;;;;;;2.22;1.70;;;30.60;99.90;;;;;;5069883;28;20181;-80
2021/06/20 11:18:30;;;;;;;3.83;2.20;;;30.70;99.90;;;;;;5084309;28;20208;-79
2021/06/20 11:20:56;;;;;;;2.45;1.60;;;30.80;99.90;;;;;;5085229;28;20212;-79
2021/06/20 11:23:22;;;;;;;2.25;1.60;;;30.80;99.90;;;;;;5085291;28;20216;-79
2021/06/20 11:25:53;;;;;;;1.58;1.48;;;30.70;99.90;;;;;;5084443;28;20184;-79
2021/06/20 11:28:19;;;;;;;1.67;1.52;;;30.80;99.90;;;;;;5083818;28;20205;-78
2021/06/20 11:30:45;;;;;;;1.58;1.40;;;30.50;99.90;;;;;;5084571;28;20207;-80
2021/06/20 11:33:22;;;;;;;2.05;1.50;;;30.30;99.90;;;;;;5087614;28;20173;-77
2021/06/20 11:35:51;;;;;;;2.03;1.70;;;30.00;99.90;;;;;;5085591;28;20211;-79
2021/06/20 11:38:27;;;;;;;1.92;1.67;;;30.10;99.90;;;;;;5086884;28;20260;-79
2021/06/20 11:40:53;;;;;;;2.08;1.67;;;30.20;99.90;;;;;;5068392;28;20215;-78
2021/06/20 11:43:19;;;;;;;2.17;1.98;;;30.40;99.90;;;;;;5086594;28;20670;-80
2021/06/20 11:45:44;;;;;;;1.67;1.58;;;30.50;99.90;;;;;;5086196;28;20215;-80
2021/06/20 11:48:10;;;;;;;1.50;1.40;;;30.60;99.90;;;;;;5086350;28;20181;-79
2021/06/20 11:50:36;;;;;;;1.48;1.38;;;30.80;99.90;;;;;;5084192;28;20200;-78
2021/06/20 11:53:07;;;;;;;2.55;1.65;;;30.90;99.90;;;;;;5085892;28;20209;-80
2021/06/20 11:55:38;;;;;;;2.10;1.60;;;30.90;99.90;;;;;;5085837;28;20183;-78
2021/06/20 11:58:09;;;;;;;2.10;1.70;;;30.90;99.90;;;;;;5086413;28;20421;-78
2021/06/20 12:00:37;;;;;;;2.05;1.83;;;31.00;99.90;;;;;;5066083;28;20285;-78
2021/06/20 12:03:05;;;;;;;1.65;1.50;;;31.10;99.90;;;;;;5085632;28;20185;-80
2021/06/20 12:05:32;;;;;;;2.35;1.65;;;30.90;99.90;;;;;;5067386;28;20184;-79
2021/06/20 12:08:01;;;;;;;2.15;1.67;;;30.90;99.90;;;;;;5067260;28;20188;-79
2021/06/20 12:10:27;;;;;;;3.58;1.60;;;30.70;99.90;;;;;;5085927;28;20208;-79
2021/06/20 12:13:01;;;;;;;1.63;1.52;;;30.70;99.90;;;;;;5067495;28;20685;-78
2021/06/20 12:15:28;;;;;;;3.40;2.00;;;30.70;99.90;;;;;;5086337;28;20180;-77
2021/06/20 12:17:54;;;;;;;3.08;1.58;;;30.80;99.90;;;;;;5066598;28;20185;-78
2021/06/20 12:20:31;;;;;;;1.40;1.30;;;31.20;99.90;;;;;;5067457;28;20196;-79
2021/06/20 12:22:57;;;;;;;2.33;1.42;;;31.50;99.90;;;;;;5085145;28;20607;-78
2021/06/20 12:25:23;;;;;;;2.00;1.50;;;31.50;99.90;;;;;;5085719;28;20185;-79
2021/06/20 12:27:49;;;;;;;1.45;1.35;;;31.70;99.90;;;;;;5065807;28;20177;-77
2021/06/20 12:30:20;;;;;;;1.92;1.80;;;31.90;99.90;;;;;;5067519;28;20560;-79
2021/06/20 12:32:48;;;;;;;1.98;1.60;;;32.10;99.90;;;;;;5066265;28;20207;-77
2021/06/20 12:35:19;;;;;;;3.80;1.52;;;32.00;99.40;;;;;;5084751;28;20226;-79
2021/06/20 12:37:45;;;;;;;1.50;1.40;;;31.40;98.10;;;;;;5066800;28;20184;-78
2021/06/20 12:40:17;;;;;;;1.60;1.33;;;31.50;98.80;;;;;;5084142;28;20213;-77
2021/06/20 12:42:50;;;;;;;1.63;1.42;;;31.60;98.90;;;;;;5085348;28;20184;-78
2021/06/20 12:45:35;;;;;;;2.10;1.50;;;31.60;96.90;;;;;;5086657;28;20184;-78
2021/06/20 12:48:19;;;;;;;2.90;1.30;;;31.50;96.60;;;;;;5088336;28;20181;-77
2021/06/20 12:50:56;;;;;;;1.60;1.25;;;31.50;97.30;;;;;;5089495;28;20201;-79